METAR Data
IDs: Format: Raw Decoded Include TAF

Data at: 1914 UTC 18 Jul 2019

KWVI 181853Z AUTO 23008KT 10SM CLR 20/13 A2998 RMK AO2 SLP153 T02000128
KWVI 181828Z AUTO VRB04KT 10SM SCT015 19/12 A2999 RMK AO2 T01940122
KWVI 181818Z AUTO 21006KT 10SM BKN015 19/13 A2999 RMK AO2 T01940128
KWVI 181753Z AUTO VRB04KT 10SM BKN014 18/13 A2999 RMK AO2 SLP155 T01780128 10183 20128 50003
KWVI 181725Z AUTO 00000KT 10SM SCT010 OVC014 16/13 A2999 RMK AO2 T01610128
KWVI 181653Z AUTO 00000KT 10SM OVC007 15/13 A2999 RMK AO2 SLP156 T01500128
KWVI 181616Z AUTO VRB03KT 10SM OVC006 14/12 A2999 RMK AO2 T01440122
KWVI 181553Z AUTO 24003KT 10SM OVC005 14/13 A2999 RMK AO2 SLP155 T01390128
KWVI 181453Z AUTO 00000KT 4SM BR OVC003 13/12 A2998 RMK AO2 SLP152 T01330122 53008
KWVI 181353Z AUTO 00000KT 6SM BR OVC003 13/12 A2997 RMK AO2 SLP149 T01330122
KWVI 181253Z AUTO 19004KT 7SM OVC004 13/12 A2996 RMK AO2 SLP146 T01330122
KWVI 181153Z AUTO 00000KT 7SM OVC004 13/12 A2996 RMK AO2 SLP145 T01330122 10139 20128 56004
KWVI 181053Z AUTO 00000KT 4SM BR OVC004 13/12 A2996 RMK AO2 SLP146 T01330122
KWVI 180953Z AUTO 20005KT 3SM BR OVC003 13/12 A2997 RMK AO2 SLP147 T01280117
KWVI 180853Z AUTO 24004KT 3SM BR OVC003 13/12 A2997 RMK AO2 SLP149 T01280117 50002
KWVI 180753Z AUTO 00000KT 10SM OVC004 13/12 A2998 RMK AO2 SLP150 T01330117 402280133
KWVI 180653Z AUTO 30003KT 10SM OVC004 13/12 A2997 RMK AO2 SLP149 T01330117
KWVI 180553Z AUTO 00000KT 9SM OVC004 14/12 A2997 RMK AO2 SLP147 T01390122 10189 20133 50003
KWVI 180528Z AUTO 23003KT 8SM OVC004 14/12 A2997 RMK AO2 T01390122
KWVI 180453Z AUTO 27003KT 9SM OVC005 14/12 A2997 RMK AO2 SLP148 T01390122
KWVI 180428Z AUTO 25003KT 10SM OVC005 14/12 A2996 RMK AO2 T01390122
KWVI 180353Z AUTO 24004KT 10SM BKN006 14/12 A2996 RMK AO2 SLP144 T01390117
KWVI 180348Z AUTO 26004KT 10SM SCT006 14/12 A2996 RMK AO2
KWVI 180253Z AUTO 23005KT 10SM CLR 15/12 A2995 RMK AO2 SLP140 T01500117 55001
KWVI 180153Z AUTO 23007KT 10SM CLR 17/12 A2994 RMK AO2 SLP138 T01720117
KWVI 180053Z AUTO 25006KT 10SM CLR 18/12 A2995 RMK AO2 SLP141 T01830122
KWVI 172353Z AUTO 21008KT 10SM CLR 19/12 A2995 RMK AO2 SLP141 T01890122 10228 20178 53001
KWVI 172253Z AUTO 23008KT 10SM CLR 20/12 A2994 RMK AO2 SLP140 T02000122
KWVI 172153Z AUTO 23010KT 10SM CLR 21/13 A2994 RMK AO2 SLP139 T02110128
KWVI 172053Z AUTO 23009KT 10SM CLR 21/13 A2995 RMK AO2 SLP140 T02110128 55000
KWVI 171953Z AUTO 22010KT 10SM CLR 23/13 A2994 RMK AO2 SLP136 T02280133
No TAF found for KWVI

KSNS 181853Z 30010KT 10SM CLR 19/13 A2997 RMK AO2 SLP158 T01940128
KSNS 181753Z 28005KT 10SM FEW013 17/12 A2998 RMK AO2 SLP160 T01720122 10178 20133 58002
KSNS 181749Z 29007KT 10SM SCT013 18/12 A2998 RMK AO2
KSNS 181701Z VRB03KT 7SM OVC010 16/13 A2999 RMK AO2 T01560128
KSNS 181653Z 00000KT 8SM OVC009 16/12 A2999 RMK AO2 SLP163 T01560122
KSNS 181553Z VRB03KT 8SM OVC007 14/12 A2998 RMK AO2 SLP162 T01440122
KSNS 181453Z 12004KT 8SM OVC006 14/12 A2998 RMK AO2 SLP159 T01390117 53008
KSNS 181353Z 12004KT 8SM OVC006 13/12 A2997 RMK AO2 SLP157 T01330117
KSNS 181253Z 11003KT 7SM OVC005 13/12 A2996 RMK AO2 SLP154 T01330117
KSNS 181153Z 00000KT 6SM BR OVC005 13/12 A2995 RMK AO2 RAB19E28 SLP152 P0000 60000 T01330117 10144 20133 56000
KSNS 181128Z AUTO 05003KT 6SM BR OVC004 13/12 A2995 RMK AO2 RAB19E28 P0000 T01330117
KSNS 181053Z AUTO 00000KT 8SM OVC005 13/12 A2995 RMK AO2 SLP152 T01330117
KSNS 181051Z AUTO 07003KT 8SM OVC005 13/12 A2995 RMK AO2
KSNS 180953Z AUTO 00000KT 9SM OVC004 13/12 A2995 RMK AO2 SLP152 T01330122
KSNS 180853Z AUTO 00000KT 8SM OVC004 13/12 A2997 RMK AO2 SLP156 T01330122 50004
KSNS 180753Z AUTO 33005KT 6SM BR OVC004 13/12 A2997 RMK AO2 SLP157 T01330122 402280133
KSNS 180653Z AUTO 33007KT 6SM BR OVC004 14/12 A2996 RMK AO2 SLP155 T01390122
KSNS 180619Z AUTO 34008KT 7SM OVC004 14/12 A2996 RMK AO2 T01440122
KSNS 180553Z AUTO 33011KT 8SM OVC005 14/12 A2995 RMK AO2 SLP152 T01440122 10189 20144 51007
KSNS 180453Z AUTO 34009KT 9SM OVC006 14/12 A2995 RMK AO2 SLP151 T01440122
KSNS 180353Z AUTO 32011KT 10SM OVC007 15/12 A2994 RMK AO2 SLP148 T01500122
KSNS 180253Z AUTO 31010KT 9SM OVC009 16/12 A2993 RMK AO2 SLP145 T01560122 51002
KSNS 180243Z AUTO 33011KT 9SM OVC009 16/12 A2993 RMK AO2 T01560122
KSNS 180153Z AUTO 33011KT 10SM OVC011 16/12 A2993 RMK AO2 SLP144 T01610122
KSNS 180053Z 34013KT 10SM OVC012 17/12 A2993 RMK AO2 SLP145 T01720122
KSNS 180017Z 34013G20KT 10SM BKN014 18/13 A2993 RMK AO2 T01830128
KSNS 172353Z 32013KT 10SM CLR 19/13 A2993 RMK AO2 SLP143 T01890128 10228 20189 53001
KSNS 172253Z 33015KT 10SM CLR 20/13 A2992 RMK AO2 SLP141 T02000128
KSNS 172153Z 34013KT 10SM CLR 21/13 A2992 RMK AO2 SLP142 T02110128
KSNS 172053Z 30010KT 10SM CLR 22/13 A2992 RMK AO2 SLP141 T02170128 55002
KSNS 171953Z 32010KT 10SM CLR 21/13 A2992 RMK AO2 SLP141 T02110133

KSNS 181723Z 1818/1918 31006KT P6SM SCT012
  FM182000 31014G20KT P6SM SKC
  FM190200 29012KT P6SM BKN008
  FM190600 26007KT P6SM OVC005
  FM191400 VRB05KT P6SM OVC008


KMRY 181854Z 26009KT 10SM CLR 19/12 A2998 RMK AO2 SLP164 T01940117
KMRY 181754Z 30007KT 10SM SCT013 18/12 A2999 RMK AO2 SLP165 T01830117 10183 20139 50001
KMRY 181744Z VRB04KT 10SM BKN013 18/12 A2999 RMK AO2 T01780117
KMRY 181654Z VRB03KT 10SM OVC009 17/12 A2999 RMK AO2 SLP169 T01670117
KMRY 181554Z 00000KT 10SM OVC008 16/12 A2999 RMK AO2 SLP168 T01560117
KMRY 181454Z 00000KT 10SM OVC007 14/11 A2998 RMK AO2 SLP165 T01440111 53008
KMRY 181354Z 00000KT 9SM OVC006 14/11 A2997 RMK AO2 SLP162 T01440111
KMRY 181254Z 18004KT 10SM OVC006 14/11 A2996 RMK AO2 SLP157 T01390111
KMRY 181154Z AUTO 12003KT 10SM OVC006 14/11 A2996 RMK AO2 SLP155 T01390111 10144 20139 56004
KMRY 181116Z AUTO 21007KT 10SM OVC005 14/11 A2996 RMK AO2 CIG 003V008 T01390111
KMRY 181054Z AUTO 21005KT 8SM OVC004 14/11 A2996 RMK AO2 SLP157 T01390111
KMRY 180954Z AUTO 00000KT 9SM OVC003 14/12 A2996 RMK AO2 SLP157 T01390117
KMRY 180944Z AUTO 00000KT 7SM OVC004 14/12 A2996 RMK AO2 T01390117
KMRY 180854Z AUTO 00000KT 10SM OVC005 14/12 A2997 RMK AO2 SLP159 T01440117 50001
KMRY 180754Z AUTO 17003KT 10SM OVC005 14/12 A2997 RMK AO2 SLP161 T01440117 402110144
KMRY 180654Z AUTO 16003KT 10SM OVC006 14/12 A2997 RMK AO2 SLP159 T01440117
KMRY 180554Z AUTO 22005KT 10SM BKN009 14/12 A2997 RMK AO2 SLP158 T01440117 10200 20144 51005
KMRY 180551Z AUTO 22005KT 10SM BKN009 14/12 A2997 RMK AO2
KMRY 180543Z AUTO 22005KT 10SM SCT009 14/12 A2996 RMK AO2 T01440117
KMRY 180454Z AUTO 22004KT 10SM CLR 15/12 A2996 RMK AO2 SLP158 T01500117
KMRY 180354Z 23006KT 10SM CLR 15/12 A2995 RMK AO2 SLP153 T01500117
KMRY 180254Z 23008KT 10SM CLR 17/12 A2994 RMK AO2 SLP149 T01670117 53001
KMRY 180154Z 24010KT 10SM CLR 18/12 A2993 RMK AO2 SLP146 T01780122
KMRY 180054Z 26011KT 10SM CLR 19/12 A2993 RMK AO2 SLP144 T01940122
KMRY 172354Z 23011KT 10SM CLR 19/12 A2994 RMK AO2 SLP147 T01890117 10211 20183 55002
KMRY 172254Z 25011KT 10SM CLR 21/12 A2993 RMK AO2 SLP146 T02060122
KMRY 172154Z 25011KT 10SM FEW007 21/12 A2994 RMK AO2 SLP149 T02060122
KMRY 172054Z 26014KT 10SM FEW007 21/12 A2994 RMK AO2 SLP150 T02060122 50000
KMRY 171954Z 25010KT 10SM CLR 21/12 A2994 RMK AO2 SLP150 T02110122

KMRY 181723Z 1818/1918 29006KT P6SM SCT012
  FM182000 29012KT P6SM SKC
  FM190200 25008KT P6SM SCT008
  FM190400 23005KT P6SM BKN008
  FM190600 24004KT P6SM OVC005
  FM191500 24005KT P6SM OVC008


KSJC 181853Z 00000KT 10SM BKN100 BKN160 26/12 A2992 RMK AO2 SLP129 T02560122 $
KSJC 181753Z VRB03KT 10SM BKN100 BKN160 23/12 A2992 RMK AO2 SLP132 T02280122 10228 20139 58004 $
KSJC 181653Z 13010KT 10SM BKN100 BKN160 19/12 A2993 RMK AO2 SLP134 T01940122 $
KSJC 181553Z 15011KT 10SM BKN100 BKN160 18/13 A2993 RMK AO2 SLP136 T01830128
KSJC 181453Z 17009KT 10SM FEW005 BKN100 BKN160 16/13 A2993 RMK AO2 SLP136 T01610128 53008
KSJC 181353Z 15010KT 10SM FEW005 BKN100 BKN160 14/13 A2993 RMK AO2 SLP133 T01440128 $
KSJC 181253Z 17007KT 10SM FEW003 BKN095 BKN160 15/13 A2992 RMK AO2 SLP129 T01500128 $
KSJC 181153Z AUTO 18007KT 10SM 16/13 A2991 RMK AO2 SLP128 6//// 7//// T01560128 10228 20156 $
KSJC 180753Z AUTO 16007KT 10SM CLR 18/13 A2991 RMK AO2 SLP128 T01780128 402940144
KSJC 180653Z 15008KT 10SM FEW100 FEW160 19/13 A2990 RMK AO2 SLP125 LAST T01940128
KSJC 180553Z 32003KT 10SM FEW090 SCT160 21/16 A2990 RMK AO2 SLP125 T02060161 10272 20200 51008
KSJC 180453Z 30005KT 10SM FEW090 SCT160 21/16 A2990 RMK AO2 SLP125 T02110156
KSJC 180353Z 31008KT 10SM SCT100 SCT160 23/16 A2989 RMK AO2 SLP120 T02280156
KSJC 180253Z 32009KT 10SM SCT100 BKN160 24/16 A2988 RMK AO2 SLP117 T02440156 53002
KSJC 180153Z 32010KT 10SM FEW075 FEW100 SCT160 26/16 A2987 RMK AO2 SLP115 T02560161
KSJC 180053Z 32013KT 10SM FEW075 FEW100 SCT160 26/16 A2987 RMK AO2 SLP115 T02610161
KSJC 172353Z 32013KT 10SM FEW060 FEW100 SCT160 27/17 A2987 RMK AO2 SLP115 T02720167 10294 20228 55004
KSJC 172253Z 31009KT 10SM FEW055 FEW075 SCT160 28/13 A2987 RMK AO2 SLP114 T02830128
KSJC 172153Z 33009KT 10SM FEW055 FEW080 SCT160 29/14 A2988 RMK AO2 SLP116 T02940144
KSJC 172053Z 30005KT 10SM FEW055 FEW080 SCT160 29/12 A2988 RMK AO2 SLP119 T02890122
KSJC 171953Z VRB03KT 10SM SCT080 BKN120 BKN150 27/11 A2990 RMK AO2 SLP123 T02670111

KSJC 181723Z 1818/1918 15010KT P6SM FEW200
  FM182000 30015KT P6SM SKC
  FM190400 32010KT P6SM SKC
  FM190700 15008KT P6SM SKC
  FM191200 15008KT P6SM FEW015


KSFO 181856Z 05008KT 10SM BKN200 22/13 A2993 RMK AO2 SLP135 T02170133
KSFO 181756Z COR 01007KT 10SM FEW010 BKN200 21/14 A2993 RMK AO2 SLP136 T02110139 10211 20144 50001
KSFO 181656Z 07004KT 10SM FEW010 BKN200 19/13 A2993 RMK AO2 SLP136 T01940128
KSFO 181556Z 01003KT 10SM FEW010 SCT200 18/12 A2994 RMK AO2 SLP137 T01830122
KSFO 181456Z 00000KT 10SM FEW008 SCT200 18/12 A2993 RMK AO2 SLP135 T01780122 53009
KSFO 181356Z 29005KT 10SM FEW008 SCT200 15/12 A2992 RMK AO2 SLP132 T01500122
KSFO 181256Z 29006KT 10SM FEW008 SCT200 15/12 A2991 RMK AO2 SLP128 T01500117
KSFO 181156Z 31005KT 10SM FEW200 14/12 A2990 RMK AO2 SLP126 T01440117 10167 20144 55002
KSFO 181056Z 30005KT 10SM FEW200 14/12 A2990 RMK AO2 SLP125 T01440117
KSFO 180956Z 30006KT 10SM FEW200 15/12 A2991 RMK AO2 SLP126 T01500117
KSFO 180856Z 29007KT 10SM FEW200 16/12 A2991 RMK AO2 SLP128 T01610122 53003
KSFO 180756Z 29008KT 10SM FEW200 17/12 A2991 RMK AO2 SLP128 T01670117 402560144
KSFO 180656Z 29008KT 10SM FEW200 16/12 A2990 RMK AO2 SLP125 T01610117
KSFO 180556Z 30009KT 10SM FEW008 16/12 A2990 RMK AO2 SLP125 T01610117 10233 20161 51006
KSFO 180456Z 30010KT 10SM FEW008 FEW200 16/12 A2990 RMK AO2 SLP125 T01610117
KSFO 180356Z 29013KT 10SM FEW008 SCT200 16/12 A2989 RMK AO2 SLP122 T01610117
KSFO 180256Z 30015KT 10SM FEW008 SCT200 18/12 A2988 RMK AO2 SLP119 T01780117 55002
KSFO 180156Z 29017KT 10SM FEW008 SCT200 19/12 A2988 RMK AO2 SLP118 T01890122
KSFO 180056Z 30012KT 10SM FEW008 SCT200 23/13 A2988 RMK AO2 SLP119 T02280128
KSFO 172356Z 29014KT 10SM FEW008 SCT200 23/13 A2989 RMK AO2 SLP121 T02280128 10256 20200 58004
KSFO 172256Z 30018KT 10SM FEW008 FEW200 23/13 A2989 RMK AO2 SLP122 T02280128
KSFO 172156Z 30017KT 10SM FEW008 FEW200 24/13 A2990 RMK AO2 SLP124 T02440128
KSFO 172056Z 31011KT 10SM FEW010 SCT200 26/13 A2990 RMK AO2 SLP125 T02560133 58004
KSFO 171956Z 02005KT 10SM FEW010 SCT200 22/13 A2991 RMK AO2 SLP128 T02220133

KSFO 181723Z 1818/1924 04006KT P6SM FEW010 FEW200
  FM182000 27012KT P6SM FEW010
  FM182200 27015G25KT P6SM FEW010
  FM190400 27012KT P6SM SCT010
  TEMPO 1906/1908 BKN012
  FM190800 VRB05KT P6SM BKN010
  FM191700 27006KT P6SM SCT012
  FM192100 26012KT P6SM FEW012


KHAF 181900Z AUTO 16010KT 10SM BKN006 16/13 A2999 RMK AO2
KHAF 181855Z AUTO 17010KT 10SM BKN006 15/13 A2999 RMK AO2
KHAF 181840Z AUTO 16010KT 10SM OVC006 15/13 A2999 RMK AO2
KHAF 181835Z AUTO 17010KT 10SM OVC006 15/13 A2999 RMK AO2
KHAF 181815Z AUTO 17011KT 10SM OVC006 15/13 A2999 RMK AO2
KHAF 181800Z AUTO 18011KT 10SM OVC006 14/13 A2999 RMK AO2
KHAF 181755Z AUTO 17011KT 10SM OVC008 14/13 A2999 RMK AO2
KHAF 181740Z AUTO 17010KT 10SM OVC008 14/13 A2999 RMK AO2
KHAF 181735Z AUTO 16009KT 10SM OVC008 14/13 A2999 RMK AO2
KHAF 181720Z AUTO 18011KT 10SM OVC006 14/13 A2998 RMK AO2
KHAF 181715Z AUTO 16009KT 10SM OVC006 14/13 A2998 RMK AO2
KHAF 181700Z AUTO 18008KT 3SM BR OVC005 13/13 A2999 RMK AO2
KHAF 181655Z AUTO 17009KT 3SM BR OVC005 14/13 A2999 RMK AO2
KHAF 181640Z AUTO 16009KT 2SM BR OVC004 13/13 A2998 RMK AO2
KHAF 181635Z AUTO 17009KT 1 3/4SM BR OVC004 13/13 A2998 RMK AO2
KHAF 181615Z AUTO 15008KT 1 1/4SM BR OVC004 13/13 A2998 RMK AO2
KHAF 181600Z AUTO 16010KT 3SM BR OVC004 13/13 A2998 RMK AO2 VSBY 1 1/2V5
KHAF 181555Z AUTO 16009KT 2 1/2SM BR OVC004 13/13 A2998 RMK AO2
KHAF 181540Z AUTO 15008KT 1SM BR OVC004 13/13 A2998 RMK AO2
KHAF 181535Z AUTO 16007KT 1SM BR OVC004 13/13 A2997 RMK AO2
KHAF 181520Z AUTO 15008KT 1SM BR OVC004 13/13 A2997 RMK AO2
KHAF 181515Z AUTO 15008KT 1SM BR OVC004 13/13 A2997 RMK AO2
KHAF 181500Z AUTO 15009KT 1SM BR OVC003 13/13 A2997 RMK AO2
KHAF 181455Z AUTO 15009KT 3/4SM BR OVC003 13/13 A2997 RMK AO2
KHAF 181440Z AUTO 15007KT 1 1/2SM BR OVC003 13/13 A2997 RMK AO2
KHAF 181435Z AUTO 15008KT 1 1/2SM BR OVC003 13/13 A2996 RMK AO2
KHAF 181420Z AUTO 14008KT 1 1/4SM BR OVC003 13/12 A2996 RMK AO2
KHAF 181415Z AUTO 14009KT 1SM BR OVC003 13/13 A2996 RMK AO2
KHAF 181400Z AUTO 13007KT 3/4SM BR OVC003 13/13 A2996 RMK AO2
KHAF 181355Z AUTO 14008KT 3/4SM BR OVC003 13/12 A2996 RMK AO2
KHAF 181335Z AUTO 14007KT 1SM BR OVC004 13/12 A2995 RMK AO2
KHAF 181320Z AUTO 14007KT 1 1/4SM BR OVC004 13/13 A2995 RMK AO2
KHAF 181315Z AUTO 14007KT 1 3/4SM BR OVC003 13/13 A2995 RMK AO2
KHAF 181300Z AUTO 15007KT 2 1/2SM BR OVC004 13/12 A2995 RMK AO2
KHAF 181255Z AUTO 14007KT 2 1/2SM BR OVC004 13/13 A2995 RMK AO2
KHAF 181240Z AUTO 14007KT 3SM BR OVC004 13/13 A2995 RMK AO2
KHAF 181235Z AUTO 15007KT 3SM BR OVC004 13/13 A2995 RMK AO2
KHAF 181220Z AUTO 16007KT 3SM BR OVC004 13/13 A2995 RMK AO2
KHAF 181215Z AUTO 16008KT 3SM BR OVC004 13/13 A2995 RMK AO2
KHAF 181155Z AUTO 15008KT 2SM BR OVC004 13/13 A2994 RMK AO2
KHAF 181140Z AUTO 15008KT 4SM BR OVC004 13/13 A2995 RMK AO2
KHAF 181135Z AUTO 16007KT 4SM BR OVC004 13/13 A2995 RMK AO2
KHAF 181120Z AUTO 17007KT 2 1/2SM BR OVC004 13/13 A2995 RMK AO2
KHAF 181115Z AUTO 16007KT 2 1/2SM BR OVC004 13/13 A2995 RMK AO2
KHAF 181100Z AUTO 16007KT 3SM BR OVC004 13/13 A2995 RMK AO2 VSBY 2V4
KHAF 181055Z AUTO 16007KT 3SM BR OVC004 13/13 A2995 RMK AO2
KHAF 181040Z AUTO 16008KT 3SM BR OVC003 13/13 A2995 RMK AO2
KHAF 181035Z AUTO 15008KT 3SM BR OVC003 13/13 A2995 RMK AO2
KHAF 181015Z AUTO 15008KT 2SM BR OVC003 13/13 A2995 RMK AO2
KHAF 181000Z AUTO 15009KT 1 3/4SM BR OVC003 13/13 A2995 RMK AO2
KHAF 180955Z AUTO 15008KT 2SM BR OVC003 13/13 A2995 RMK AO2
KHAF 180940Z AUTO 15008KT 2SM BR OVC003 13/13 A2995 RMK AO2
KHAF 180935Z AUTO 15008KT 2SM BR OVC003 13/13 A2995 RMK AO2
KHAF 180920Z AUTO 14008KT 1 1/2SM BR OVC003 13/13 A2996 RMK AO2
KHAF 180915Z AUTO 14007KT 1 1/2SM BR OVC003 13/13 A2996 RMK AO2
KHAF 180900Z AUTO 14007KT 1 3/4SM BR OVC003 13/13 A2996 RMK AO2
KHAF 180855Z AUTO 14008KT 1 3/4SM BR OVC003 13/13 A2996 RMK AO2
KHAF 180835Z AUTO 14007KT 1 1/2SM BR OVC003 13/13 A2996 RMK AO2
KHAF 180820Z AUTO 14009KT 2SM BR OVC003 13/13 A2996 RMK AO2
KHAF 180815Z AUTO 14009KT 2SM BR OVC003 13/13 A2996 RMK AO2
KHAF 180800Z AUTO 14008KT 3SM BR OVC003 14/13 A2996 RMK AO2
KHAF 180755Z AUTO 14009KT 4SM BR OVC003 14/13 A2996 RMK AO2
KHAF 180740Z AUTO 15009KT 4SM BR OVC004 14/13 A2995 RMK AO2
KHAF 180735Z AUTO 15007KT 5SM BR OVC004 14/13 A2995 RMK AO2
KHAF 180720Z AUTO 15009KT 7SM OVC004 14/13 A2995 RMK AO2
KHAF 180715Z AUTO 14008KT 7SM OVC004 14/13 A2995 RMK AO2
KHAF 180700Z AUTO 14008KT 8SM OVC005 14/13 A2995 RMK AO2
KHAF 180655Z AUTO 15009KT 8SM OVC005 14/13 A2995 RMK AO2
KHAF 180635Z AUTO 14010KT 7SM OVC006 14/13 A2995 RMK AO2
KHAF 180620Z AUTO 14008KT 7SM OVC006 14/13 A2995 RMK AO2
KHAF 180615Z AUTO 14007KT 8SM OVC006 14/13 A2995 RMK AO2
KHAF 180600Z AUTO 13008KT 7SM OVC006 14/13 A2995 RMK AO2
KHAF 180555Z AUTO 13008KT 7SM OVC005 14/13 A2995 RMK AO2
KHAF 180540Z AUTO 14007KT 8SM OVC004 13/13 A2995 RMK AO2
KHAF 180535Z AUTO 16006KT 8SM OVC004 13/13 A2995 RMK AO2
KHAF 180520Z AUTO 15006KT 5SM BR OVC003 13/13 A2995 RMK AO2
KHAF 180515Z AUTO 17005KT 4SM BR OVC003 13/13 A2996 RMK AO2
KHAF 180500Z AUTO 17006KT 1 1/2SM BR OVC003 13/12 A2995 RMK AO2
KHAF 180455Z AUTO 16005KT 1 1/2SM BR OVC002 13/12 A2995 RMK AO2
KHAF 180435Z AUTO 15004KT 2 1/2SM BR BKN002 13/12 A2995 RMK AO2 VSBY 1 3/4V4
KHAF 180420Z AUTO 16005KT 3SM BR BKN002 13/12 A2995 RMK AO2
KHAF 180415Z AUTO 18005KT 2SM BR OVC002 13/12 A2995 RMK AO2 VSBY 1V3
KHAF 180400Z AUTO 18006KT 3/4SM BR OVC002 13/12 A2995 RMK AO2
KHAF 180355Z AUTO 17005KT 1/2SM FG OVC002 13/12 A2995 RMK AO2
KHAF 180340Z AUTO 17006KT 1/4SM FG OVC002 13/12 A2994 RMK AO2
KHAF 180335Z AUTO 18007KT 1/4SM FG OVC003 13/12 A2994 RMK AO2
KHAF 180320Z AUTO 16004KT 4SM BR BKN002 13/12 A2994 RMK AO2
KHAF 180315Z AUTO 15004KT 1 1/4SM BR OVC002 13/12 A2994 RMK AO2
KHAF 180255Z AUTO 14003KT 1/2SM FG OVC003 13/12 A2995 RMK AO2
KHAF 180240Z AUTO 18003KT 3/4SM BR OVC003 13/12 A2994 RMK AO2
KHAF 180235Z AUTO 18004KT 1 1/4SM BR OVC003 13/13 A2994 RMK AO2
KHAF 180220Z AUTO 17004KT 2SM BR OVC003 14/13 A2994 RMK AO2
KHAF 180215Z AUTO 16004KT 5SM BR OVC003 14/13 A2994 RMK AO2
KHAF 180200Z AUTO 22003KT 3/4SM BR OVC003 13/13 A2994 RMK AO2
KHAF 180155Z AUTO 21004KT 1/2SM FG OVC003 13/12 A2994 RMK AO2
KHAF 180140Z AUTO 24004KT 1/2SM FG OVC003 14/13 A2994 RMK AO2
KHAF 180135Z AUTO 23005KT 1 1/4SM BR BKN003 14/13 A2994 RMK AO2
KHAF 180120Z AUTO 23006KT 6SM HZ CLR 16/13 A2994 RMK AO2
KHAF 180115Z AUTO 19005KT 7SM CLR 17/13 A2994 RMK AO2
KHAF 180055Z AUTO 20005KT 9SM CLR 16/13 A2994 RMK AO2
KHAF 180040Z AUTO 21005KT 8SM CLR 16/13 A2994 RMK AO2
KHAF 180035Z AUTO 22005KT 8SM CLR 16/13 A2995 RMK AO2
KHAF 180020Z AUTO 23006KT 7SM CLR 16/13 A2995 RMK AO2
KHAF 180015Z AUTO 22006KT 6SM HZ CLR 16/13 A2995 RMK AO2
KHAF 180000Z AUTO 24005KT 6SM HZ CLR 16/13 A2995 RMK AO2
KHAF 172355Z AUTO 23005KT 7SM CLR 16/13 A2995 RMK AO2
KHAF 172340Z AUTO 23006KT 7SM CLR 17/13 A2994 RMK AO2
KHAF 172335Z AUTO 20005KT 8SM CLR 17/13 A2994 RMK AO2
KHAF 172320Z AUTO 21006KT 7SM CLR 16/13 A2995 RMK AO2
KHAF 172315Z AUTO 22006KT 8SM CLR 16/13 A2995 RMK AO2
KHAF 172255Z AUTO 22007KT 8SM CLR 17/13 A2996 RMK AO2
KHAF 172240Z AUTO 20005KT 8SM CLR 15/13 A2996 RMK AO2
KHAF 172235Z AUTO 23007KT 9SM CLR 15/13 A2996 RMK AO2
KHAF 172220Z AUTO 22007KT 9SM CLR 16/13 A2996 RMK AO2
KHAF 172215Z AUTO 20008KT 10SM CLR 17/13 A2996 RMK AO2
KHAF 172200Z AUTO 20008KT 8SM CLR 16/13 A2996 RMK AO2
KHAF 172155Z AUTO 21007KT 8SM CLR 16/13 A2996 RMK AO2
KHAF 172140Z AUTO 20005KT 8SM CLR 16/13 A2996 RMK AO2
KHAF 172135Z AUTO 21008KT 8SM CLR 16/13 A2996 RMK AO2
KHAF 172120Z AUTO 21007KT 8SM CLR 16/13 A2996 RMK AO2
KHAF 172115Z AUTO 21006KT 8SM FEW013 16/13 A2996 RMK AO2
KHAF 172055Z AUTO 16007KT 10SM FEW013 17/13 A2995 RMK AO2
KHAF 172040Z AUTO 19008KT 140V210 10SM FEW015 17/13 A2996 RMK AO2
KHAF 172035Z AUTO 17008KT 10SM FEW015 17/13 A2996 RMK AO2
KHAF 172020Z AUTO 17009KT 10SM CLR 17/13 A2996 RMK AO2
KHAF 172015Z AUTO 19007KT 10SM CLR 16/13 A2996 RMK AO2
KHAF 172000Z AUTO 17008KT 10SM CLR 17/13 A2995 RMK AO2
KHAF 171955Z AUTO 17008KT 10SM CLR 17/13 A2995 RMK AO2
KHAF 171940Z AUTO 18008KT 10SM FEW008 17/13 A2995 RMK AO2
KHAF 171935Z AUTO 17008KT 140V200 10SM FEW008 16/13 A2995 RMK AO2
KHAF 171915Z AUTO 17011KT 10SM FEW008 16/13 A2995 RMK AO2
No TAF found for KHAF